Time;durP1;ratioP1;P1;durP2;ratioP2;P2;SDS_P1;SDS_P2;PMS_P1;PMS_P2;Temp;Humidity;BMP_temperature;BMP_pressure;BME280_temperature;BME280_humidity;BME280_pressure;Samples;Min_cycle;Max_cycle;Signal;HPM_P1;HPM_P2
2022/11/01 00:01:06;;;;;;;;;;;12.40;99.90;;;;;;5112935;28;1167;-67
2022/11/01 00:03:32;;;;;;;;;;;12.30;99.90;;;;;;5112643;28;1067;-67
2022/11/01 00:05:58;;;;;;;;;;;12.40;99.90;;;;;;5112279;28;1650;-67
2022/11/01 00:08:23;;;;;;;;;;;12.40;99.90;;;;;;5112715;28;1092;-67
2022/11/01 00:10:49;;;;;;;;;;;12.40;99.90;;;;;;5093808;28;1918;-67
2022/11/01 00:13:14;;;;;;;;;;;12.50;99.90;;;;;;5112061;28;1183;-67
2022/11/01 00:15:40;;;;;;;;;;;12.40;99.90;;;;;;5112622;28;1120;-67
2022/11/01 00:18:06;;;;;;;;;;;12.40;99.90;;;;;;5111647;28;1104;-67
2022/11/01 00:20:31;;;;;;;;;;;12.50;99.90;;;;;;5111843;28;1080;-67
2022/11/01 00:22:57;;;;;;;;;;;12.50;99.90;;;;;;5094329;28;1355;-67
2022/11/01 00:25:23;;;;;;;;;;;12.60;99.90;;;;;;5093788;28;1934;-67
2022/11/01 00:27:48;;;;;;;;;;;12.60;99.90;;;;;;5111390;28;1208;-67
2022/11/01 00:30:15;;;;;;;;;;;12.60;99.90;;;;;;5112187;28;1902;-67
2022/11/01 00:32:41;;;;;;;;;;;12.60;99.90;;;;;;5111521;28;1218;-67
2022/11/01 00:35:07;;;;;;;;;;;12.60;99.90;;;;;;5111687;28;1096;-67
2022/11/01 00:37:34;;;;;;;;;;;12.70;99.90;;;;;;5112327;28;1128;-67
2022/11/01 00:39:59;;;;;;;;;;;12.70;99.90;;;;;;5111086;28;1180;-67
2022/11/01 00:42:25;;;;;;;;;;;12.70;99.90;;;;;;5112274;28;1057;-67
2022/11/01 00:44:51;;;;;;;;;;;12.80;99.90;;;;;;5093750;28;1098;-67
2022/11/01 00:47:16;;;;;;;;;;;12.80;99.90;;;;;;5110928;28;1159;-67
2022/11/01 00:49:42;;;;;;;;;;;12.70;99.90;;;;;;5110390;28;1906;-66
2022/11/01 00:52:07;;;;;;;;;;;12.80;99.90;;;;;;5112145;28;1143;-68
2022/11/01 00:54:33;;;;;;;;;;;12.80;99.90;;;;;;5110975;28;1142;-67
2022/11/01 00:56:59;;;;;;;;;;;12.80;99.90;;;;;;5112032;28;1132;-66
2022/11/01 00:59:24;;;;;;;;;;;12.80;99.90;;;;;;5092661;28;1170;-67
2022/11/01 01:01:50;;;;;;;;;;;12.80;99.90;;;;;;5092012;28;2038;-67
2022/11/01 01:04:16;;;;;;;;;;;12.80;99.90;;;;;;5090330;28;1386;-67
2022/11/01 01:06:41;;;;;;;;;;;12.80;99.90;;;;;;5109913;28;1333;-67
2022/11/01 01:09:07;;;;;;;;;;;12.90;99.90;;;;;;5110378;28;1303;-67
2022/11/01 01:11:33;;;;;;;;;;;12.90;99.90;;;;;;5088326;28;1909;-67
2022/11/01 01:13:58;;;;;;;;;;;12.90;99.90;;;;;;5102985;28;1140;-67
2022/11/01 01:16:24;;;;;;;;;;;12.90;99.90;;;;;;5110564;28;1104;-66
2022/11/01 01:18:50;;;;;;;;;;;12.90;99.90;;;;;;5111797;28;1104;-67
2022/11/01 01:21:16;;;;;;;;;;;13.00;99.90;;;;;;5111411;28;1092;-67
2022/11/01 01:23:42;;;;;;;;;;;13.00;99.90;;;;;;5092308;28;1179;-67
2022/11/01 01:26:08;;;;;;;;;;;13.00;99.90;;;;;;5093196;28;1119;-67
2022/11/01 01:28:34;;;;;;;;;;;13.10;99.90;;;;;;5110598;28;1105;-67
2022/11/01 01:31:04;;;;;;;;;;;13.10;99.90;;;;;;5109838;28;1906;-67
2022/11/01 01:33:30;;;;;;;;;;;13.10;99.90;;;;;;5108715;28;1236;-67
2022/11/01 01:35:58;;;;;;;;;;;13.10;99.90;;;;;;5110068;28;1183;-67
2022/11/01 01:38:24;;;;;;;;;;;13.10;99.90;;;;;;5110617;28;1135;-67
2022/11/01 01:40:49;;;;;;;;;;;13.10;99.90;;;;;;5111238;28;1085;-67
2022/11/01 01:43:15;;;;;;;;;;;13.10;99.90;;;;;;5102907;28;2080;-67
2022/11/01 01:45:41;;;;;;;;;;;13.20;99.90;;;;;;5108584;28;1163;-67
2022/11/01 01:48:07;;;;;;;;;;;13.20;99.90;;;;;;5110586;28;1194;-67
2022/11/01 01:50:35;;;;;;;;;;;13.20;99.90;;;;;;5110050;28;1989;-67
2022/11/01 01:53:01;;;;;;;;;;;13.20;99.90;;;;;;5110755;28;1156;-67
2022/11/01 01:55:31;;;;;;;;;;;13.20;99.90;;;;;;5110701;28;1116;-67
2022/11/01 01:57:57;;;;;;;;;;;13.30;99.90;;;;;;5110254;28;1093;-67
2022/11/01 02:00:23;;;;;;;;;;;13.20;99.90;;;;;;5096660;28;1080;-67
2022/11/01 02:02:49;;;;;;;;;;;13.30;99.90;;;;;;5110773;28;1148;-67
2022/11/01 02:05:25;;;;;;;;;;;13.30;99.90;;;;;;5109651;28;1334;-67
2022/11/01 02:07:51;;;;;;;;;;;13.30;99.90;;;;;;5109696;28;1652;-67
2022/11/01 02:10:17;;;;;;;;;;;13.30;99.90;;;;;;5108746;28;1938;-67
2022/11/01 02:12:44;;;;;;;;;;;13.30;99.90;;;;;;5109303;28;1155;-67
2022/11/01 02:15:12;;;;;;;;;;;13.30;99.90;;;;;;5088587;28;1132;-67
2022/11/01 02:17:47;;;;;;;;;;;13.30;99.90;;;;;;5105804;28;1018;-67
2022/11/01 02:20:12;;;;;;;;;;;13.30;99.90;;;;;;5109684;28;1108;-67
2022/11/01 02:22:39;;;;;;;;;;;13.40;99.90;;;;;;5109430;28;1183;-67
2022/11/01 02:25:27;;;;;;;;;;;13.40;99.90;;;;;;5110536;28;1097;-67
2022/11/01 02:27:54;;;;;;;;;;;13.40;99.90;;;;;;5109562;28;1251;-67
2022/11/01 02:30:20;;;;;;;;;;;13.30;99.90;;;;;;5108896;28;2304;-67
2022/11/01 02:32:57;;;;;;;;;;;13.40;99.90;;;;;;5109206;28;1108;-67
2022/11/01 02:35:23;;;;;;;;;;;13.30;99.90;;;;;;5110031;28;1204;-67
2022/11/01 02:38:05;;;;;;;;;;;13.30;99.90;;;;;;5109541;28;1159;-67
2022/11/01 02:40:36;;;;;;;;;;;13.30;99.90;;;;;;5090852;28;1128;-67
2022/11/01 02:43:03;;;;;;;;;;;13.30;99.90;;;;;;5109880;28;1210;-67
2022/11/01 02:45:33;;;;;;;;;;;13.30;99.90;;;;;;5109642;28;1195;-67
2022/11/01 02:47:59;;;;;;;;;;;13.40;99.90;;;;;;5108761;28;942;-67
2022/11/01 02:50:26;;;;;;;;;;;13.40;99.90;;;;;;5109725;28;1975;-67
2022/11/01 02:52:52;;;;;;;;;;;13.40;99.90;;;;;;5109785;28;1080;-67
2022/11/01 02:55:34;;;;;;;;;;;13.40;99.90;;;;;;5109197;28;1167;-67
2022/11/01 02:58:01;;;;;;;;;;;13.40;99.90;;;;;;5090977;28;1171;-67
2022/11/01 03:00:28;;;;;;;;;;;13.50;99.90;;;;;;5108452;28;1104;-67
2022/11/01 03:02:58;;;;;;;;;;;13.50;99.90;;;;;;5109852;28;1105;-67
2022/11/01 03:05:26;;;;;;;;;;;13.50;99.90;;;;;;5109755;28;1567;-67
2022/11/01 03:07:55;;;;;;;;;;;13.50;99.90;;;;;;5105819;28;1325;-67
2022/11/01 03:10:25;;;;;;;;;;;13.50;99.90;;;;;;5109524;28;1901;-67
2022/11/01 03:13:07;;;;;;;;;;;13.50;99.90;;;;;;5091119;28;1155;-67
2022/11/01 03:15:38;;;;;;;;;;;13.60;99.90;;;;;;5108087;28;1168;-67
2022/11/01 03:18:09;;;;;;;;;;;13.60;99.90;;;;;;5098466;28;1392;-67
2022/11/01 03:20:53;;;;;;;;;;;13.60;99.90;;;;;;5109074;28;1222;-67
2022/11/01 03:23:24;;;;;;;;;;;13.50;99.90;;;;;;5111618;28;1182;-67
2022/11/01 03:25:53;;;;;;;;;;;13.60;99.90;;;;;;5113106;28;1215;-67
2022/11/01 03:28:21;;;;;;;;;;;13.60;99.90;;;;;;5113192;28;1263;-67
2022/11/01 03:30:54;;;;;;;;;;;13.70;99.90;;;;;;5112098;28;1980;-67
2022/11/01 03:33:21;;;;;;;;;;;13.70;99.90;;;;;;5110441;28;1290;-67
2022/11/01 03:35:48;;;;;;;;;;;13.70;99.90;;;;;;5112624;28;1158;-67
2022/11/01 03:38:15;;;;;;;;;;;13.80;99.90;;;;;;5113010;28;1235;-67
2022/11/01 03:40:45;;;;;;;;;;;13.80;99.90;;;;;;5113296;28;1227;-67
2022/11/01 03:43:13;;;;;;;;;;;13.80;99.90;;;;;;5110679;28;1189;-67
2022/11/01 03:45:39;;;;;;;;;;;13.80;99.90;;;;;;5112706;28;1235;-67
2022/11/01 03:48:05;;;;;;;;;;;13.80;99.90;;;;;;5112839;28;1343;-67
2022/11/01 03:50:31;;;;;;;;;;;13.80;99.90;;;;;;5111866;27;1902;-67
2022/11/01 03:52:57;;;;;;;;;;;13.80;99.90;;;;;;5111884;28;1081;-67
2022/11/01 03:55:22;;;;;;;;;;;13.80;99.90;;;;;;5094675;28;1164;-67
2022/11/01 03:57:48;;;;;;;;;;;13.90;99.90;;;;;;5111902;28;1270;-67
2022/11/01 04:00:15;;;;;;;;;;;13.90;99.90;;;;;;5112184;28;1250;-67
2022/11/01 04:02:42;;;;;;;;;;;14.00;99.90;;;;;;5112545;28;1313;-67
2022/11/01 04:05:09;;;;;;;;;;;14.00;99.90;;;;;;5095126;28;1326;-67
2022/11/01 04:07:35;;;;;;;;;;;14.10;99.90;;;;;;5110101;28;1562;-67
2022/11/01 04:10:00;;;;;;;;;;;14.20;99.90;;;;;;5112671;28;1917;-67
2022/11/01 04:12:26;;;;;;;;;;;14.20;99.90;;;;;;5112228;28;1120;-67
2022/11/01 04:20:32;;;;;;;;;;;14.40;99.90;;;;;;5112389;28;1114;-67
2022/11/01 04:22:58;;;;;;;;;;;14.50;99.90;;;;;;5112071;28;1195;-67
2022/11/01 04:25:24;;;;;;;;;;;14.50;99.90;;;;;;5092933;28;1111;-67
2022/11/01 04:27:49;;;;;;;;;;;14.50;99.90;;;;;;5112508;28;1068;-67
2022/11/01 04:30:15;;;;;;;;;;;14.50;99.90;;;;;;5111916;28;1913;-67
2022/11/01 04:32:41;;;;;;;;;;;14.60;99.90;;;;;;5100389;28;1166;-67
2022/11/01 04:35:10;;;;;;;;;;;14.60;99.90;;;;;;5111863;28;1206;-67
2022/11/01 04:37:35;;;;;;;;;;;14.60;99.90;;;;;;5111794;28;1278;-67
2022/11/01 04:40:01;;;;;;;;;;;14.60;99.90;;;;;;5092640;28;1215;-67
2022/11/01 04:42:27;;;;;;;;;;;14.60;99.90;;;;;;5112423;28;1183;-67
2022/11/01 04:44:52;;;;;;;;;;;14.60;99.90;;;;;;5111508;28;1050;-67
2022/11/01 04:47:18;;;;;;;;;;;14.60;99.90;;;;;;5111500;28;1147;-67
2022/11/01 04:49:43;;;;;;;;;;;14.60;99.90;;;;;;5112010;28;1914;-67
2022/11/01 04:52:09;;;;;;;;;;;14.60;99.90;;;;;;5109762;28;1140;-67
2022/11/01 04:54:36;;;;;;;;;;;14.60;99.90;;;;;;5111487;28;1170;-67
2022/11/01 04:57:01;;;;;;;;;;;14.60;99.90;;;;;;5112089;28;1203;-67
2022/11/01 04:59:27;;;;;;;;;;;14.60;99.90;;;;;;5092982;28;1181;-67
2022/11/01 05:01:53;;;;;;;;;;;14.60;99.90;;;;;;5092435;28;1144;-67
2022/11/01 05:04:18;;;;;;;;;;;14.70;99.90;;;;;;5111867;28;1310;-67
2022/11/01 05:06:44;;;;;;;;;;;14.70;99.90;;;;;;5111424;28;1352;-67
2022/11/01 05:09:09;;;;;;;;;;;14.70;99.90;;;;;;5111059;28;1156;-67
2022/11/01 05:11:35;;;;;;;;;;;14.70;99.90;;;;;;5111120;28;1942;-67
2022/11/01 05:14:00;;;;;;;;;;;14.70;99.90;;;;;;5110377;28;1159;-67
2022/11/01 05:16:26;;;;;;;;;;;14.70;99.90;;;;;;5111751;28;1144;-67
2022/11/01 05:18:52;;;;;;;;;;;14.70;99.90;;;;;;5111314;28;1128;-67
2022/11/01 05:21:17;;;;;;;;;;;14.60;99.90;;;;;;5089017;28;1183;-67
2022/11/01 05:23:45;;;;;;;;;;;14.60;99.90;;;;;;5102413;28;1164;-67
2022/11/01 05:26:11;;;;;;;;;;;14.70;99.90;;;;;;5111196;28;1131;-67
2022/11/01 05:28:36;;;;;;;;;;;14.60;99.90;;;;;;5109960;28;1262;-67
2022/11/01 05:31:02;;;;;;;;;;;14.70;99.90;;;;;;5110952;28;2020;-67
2022/11/01 05:33:28;;;;;;;;;;;14.60;99.90;;;;;;5111353;28;1104;-67
2022/11/01 05:35:53;;;;;;;;;;;14.60;99.90;;;;;;5110126;28;1120;-67
2022/11/01 05:38:19;;;;;;;;;;;14.60;99.90;;;;;;5110701;28;1207;-67
2022/11/01 05:40:44;;;;;;;;;;;14.60;99.90;;;;;;5110858;28;1108;-67
2022/11/01 05:43:10;;;;;;;;;;;14.60;99.90;;;;;;5110165;28;1146;-67
2022/11/01 05:45:36;;;;;;;;;;;14.60;99.90;;;;;;5110229;28;1144;-67
2022/11/01 05:48:02;;;;;;;;;;;14.60;99.90;;;;;;5111006;28;1085;-67
2022/11/01 05:50:28;;;;;;;;;;;14.70;99.90;;;;;;5109761;28;1913;-67
2022/11/01 05:52:54;;;;;;;;;;;14.70;99.90;;;;;;5111053;28;1148;-67
2022/11/01 05:55:19;;;;;;;;;;;14.70;99.90;;;;;;5092095;28;1111;-67
2022/11/01 05:57:45;;;;;;;;;;;14.70;99.90;;;;;;5091436;28;1120;-67
2022/11/01 06:00:11;;;;;;;;;;;14.60;99.90;;;;;;5110400;28;1240;-67
2022/11/01 06:02:38;;;;;;;;;;;14.60;99.90;;;;;;5110402;28;1198;-67
2022/11/01 06:05:03;;;;;;;;;;;14.60;99.90;;;;;;5109686;28;1331;-67
2022/11/01 06:07:29;;;;;;;;;;;14.60;99.90;;;;;;5110466;28;1558;-67
2022/11/01 06:09:55;;;;;;;;;;;14.70;99.90;;;;;;5110172;28;1910;-67
2022/11/01 06:12:22;;;;;;;;;;;14.70;99.90;;;;;;5109076;28;1104;-68
2022/11/01 06:14:47;;;;;;;;;;;14.80;99.90;;;;;;5110610;28;1203;-67
2022/11/01 06:17:16;;;;;;;;;;;14.90;99.90;;;;;;5109726;28;1152;-67
2022/11/01 06:19:42;;;;;;;;;;;15.00;99.90;;;;;;5109895;28;1128;-67
2022/11/01 06:22:07;;;;;;;;;;;15.00;99.90;;;;;;5110099;28;1000;-67
2022/11/01 06:24:33;;;;;;;;;;;15.30;99.90;;;;;;5091357;28;1112;-67
2022/11/01 06:26:58;;;;;;;;;;;15.50;99.90;;;;;;5109812;28;1079;-67
2022/11/01 06:29:24;;;;;;;;;;;15.60;99.90;;;;;;5109829;28;1093;-67
2022/11/01 06:31:50;;;;;;;;;;;15.40;99.90;;;;;;5109283;28;1909;-67
2022/11/01 06:34:15;;;;;;;;;;;15.30;99.90;;;;;;5091482;28;1168;-67
2022/11/01 06:36:41;;;;;;;;;;;15.40;99.90;;;;;;5110139;28;1107;-67
2022/11/01 06:39:07;;;;;;;;;;;15.20;99.90;;;;;;5108867;28;1108;-67
2022/11/01 06:41:33;;;;;;;;;;;15.10;99.90;;;;;;5109057;28;1235;-67
2022/11/01 06:43:58;;;;;;;;;;;15.00;99.90;;;;;;5109585;28;1124;-67
2022/11/01 06:46:24;;;;;;;;;;;14.90;99.90;;;;;;5109053;28;1223;-67
2022/11/01 06:48:50;;;;;;;;;;;14.90;99.90;;;;;;5108839;28;1274;-67
2022/11/01 06:51:15;;;;;;;;;;;15.00;99.90;;;;;;5109607;28;2031;-67
2022/11/01 06:53:41;;;;;;;;;;;15.10;99.90;;;;;;5108898;28;1234;-67
2022/11/01 06:56:07;;;;;;;;;;;15.20;99.90;;;;;;5108637;28;1183;-67
2022/11/01 06:58:32;;;;;;;;;;;15.30;99.90;;;;;;5091254;28;1120;-67
2022/11/01 07:00:59;;;;;;;;;;;15.20;99.90;;;;;;5108891;28;1108;-66
2022/11/01 07:03:25;;;;;;;;;;;15.00;99.90;;;;;;5109356;28;1260;-67
2022/11/01 07:05:51;;;;;;;;;;;15.00;99.90;;;;;;5108566;28;1567;-67
2022/11/01 07:08:16;;;;;;;;;;;14.80;99.90;;;;;;5106608;28;1117;-66
2022/11/01 07:10:42;;;;;;;;;;;14.70;99.90;;;;;;5108996;28;1977;-67
2022/11/01 07:13:09;;;;;;;;;;;14.70;99.90;;;;;;5109313;28;1108;-66
2022/11/01 07:15:35;;;;;;;;;;;14.60;99.90;;;;;;5100151;28;1153;-67
2022/11/01 07:18:02;;;;;;;;;;;14.50;99.90;;;;;;5108875;28;1306;-67
2022/11/01 07:20:29;;;;;;;;;;;14.40;99.90;;;;;;5106548;28;1219;-66
2022/11/01 07:23:01;;;;;;;;;;;14.40;99.90;;;;;;5108865;28;1140;-67
2022/11/01 07:25:27;;;;;;;;;;;14.30;99.90;;;;;;5109723;28;949;-66
2022/11/01 07:27:53;;;;;;;;;;;14.30;99.90;;;;;;5107594;28;1003;-66
2022/11/01 07:30:19;;;;;;;;;;;14.30;99.90;;;;;;5089412;28;1913;-67
2022/11/01 07:32:45;;;;;;;;;;;14.30;99.90;;;;;;5108842;28;1227;-66
2022/11/01 07:35:10;;;;;;;;;;;14.20;99.90;;;;;;5108158;28;1096;-67
2022/11/01 07:37:36;;;;;;;;;;;14.20;99.90;;;;;;5109107;28;1120;-67
2022/11/01 07:40:02;;;;;;;;;;;14.10;99.90;;;;;;5109100;28;1108;-67
2022/11/01 07:42:28;;;;;;;;;;;14.10;99.90;;;;;;5107793;28;1139;-67
2022/11/01 07:44:54;;;;;;;;;;;14.20;99.90;;;;;;5089887;28;1199;-67
2022/11/01 07:47:19;;;;;;;;;;;14.40;99.90;;;;;;5109207;28;1250;-67
2022/11/01 07:49:46;;;;;;;;;;;14.50;99.90;;;;;;5107945;28;1914;-66
2022/11/01 07:52:12;;;;;;;;;;;14.50;99.90;;;;;;5109347;28;1100;-66
2022/11/01 07:54:38;;;;;;;;;;;14.50;99.90;;;;;;5090938;28;1168;-67
2022/11/01 07:57:04;;;;;;;;;;;14.50;99.90;;;;;;5085265;28;1294;-67
2022/11/01 07:59:30;;;;;;;;;;;14.60;99.90;;;;;;5107802;28;1198;-67
2022/11/01 08:01:55;;;;;;;;;;;14.50;99.90;;;;;;5108929;28;1127;-67
2022/11/01 08:04:22;;;;;;;;;;;14.50;99.90;;;;;;5107894;28;1318;-67
2022/11/01 08:06:47;;;;;;;;;;;14.50;99.90;;;;;;5108004;28;1407;-67
2022/11/01 08:09:13;;;;;;;;;;;14.60;99.90;;;;;;5112308;28;1139;-67
2022/11/01 08:11:39;;;;;;;;;;;14.60;99.90;;;;;;5111735;28;1910;-67
2022/11/01 08:14:04;;;;;;;;;;;14.60;99.90;;;;;;5112546;28;1168;-67
2022/11/01 08:16:30;;;;;;;;;;;14.60;99.90;;;;;;5112279;28;1151;-67
2022/11/01 08:18:56;;;;;;;;;;;14.60;99.90;;;;;;5076505;28;1109;-67
2022/11/01 08:21:21;;;;;;;;;;;14.70;99.90;;;;;;5112201;28;1179;-67
2022/11/01 08:23:47;;;;;;;;;;;14.70;99.90;;;;;;5112548;28;1160;-67
2022/11/01 08:26:13;;;;;;;;;;;14.80;99.90;;;;;;5111376;28;1112;-67
2022/11/01 08:28:39;;;;;;;;;;;14.70;99.90;;;;;;5112582;28;1120;-67
2022/11/01 08:31:06;;;;;;;;;;;14.70;99.90;;;;;;5111546;28;1938;-67
2022/11/01 08:33:31;;;;;;;;;;;14.70;99.90;;;;;;5111975;28;1179;-66
2022/11/01 08:35:57;;;;;;;;;;;14.70;99.90;;;;;;5093621;28;1093;-67
2022/11/01 08:38:23;;;;;;;;;;;14.80;99.90;;;;;;5111628;28;1104;-67
2022/11/01 08:40:48;;;;;;;;;;;14.70;99.90;;;;;;5112083;28;1069;-67
2022/11/01 08:43:14;;;;;;;;;;;14.60;99.90;;;;;;5111784;28;1107;-67
2022/11/01 08:45:40;;;;;;;;;;;14.60;99.90;;;;;;5111122;28;1171;-67
2022/11/01 08:48:06;;;;;;;;;;;14.60;99.90;;;;;;5111726;28;1235;-67
2022/11/01 08:50:33;;;;;;;;;;;14.60;99.90;;;;;;5111668;28;1945;-67
2022/11/01 08:53:03;;;;;;;;;;;14.60;99.90;;;;;;5110955;28;1153;-67
2022/11/01 08:55:29;;;;;;;;;;;14.50;99.90;;;;;;5111677;28;1116;-67
2022/11/01 08:57:57;;;;;;;;;;;14.50;99.90;;;;;;5112018;28;1172;-67
2022/11/01 09:00:22;;;;;;;;;;;14.40;99.90;;;;;;5110785;28;1229;-67
2022/11/01 09:02:48;;;;;;;;;;;14.40;99.90;;;;;;5111484;28;1167;-66
2022/11/01 09:05:14;;;;;;;;;;;14.50;99.90;;;;;;5111719;28;1310;-67
2022/11/01 09:07:40;;;;;;;;;;;14.40;99.90;;;;;;5110786;28;1585;-67
2022/11/01 09:10:05;;;;;;;;;;;14.50;99.90;;;;;;5111137;28;1930;-66
2022/11/01 09:12:31;;;;;;;;;;;14.50;99.90;;;;;;5111538;28;1133;-67
2022/11/01 09:14:57;;;;;;;;;;;14.50;99.90;;;;;;5106675;28;1112;-67
2022/11/01 09:17:22;;;;;;;;;;;14.50;99.90;;;;;;5110344;28;1325;-66
2022/11/01 09:19:48;;;;;;;;;;;14.60;99.90;;;;;;5110203;28;1148;-67
2022/11/01 09:22:14;;;;;;;;;;;14.60;99.90;;;;;;5111017;28;1120;-66
2022/11/01 09:24:39;;;;;;;;;;;14.60;99.90;;;;;;5111145;28;1120;-67
2022/11/01 09:27:06;;;;;;;;;;;14.60;99.90;;;;;;5110773;28;1088;-66
2022/11/01 09:29:31;;;;;;;;;;;14.70;99.90;;;;;;5110930;28;1179;-66
2022/11/01 09:31:57;;;;;;;;;;;14.80;99.90;;;;;;5110488;28;1980;-66
2022/11/01 09:34:23;;;;;;;;;;;14.90;99.90;;;;;;5106757;28;3240;-67
2022/11/01 09:36:48;;;;;;;;;;;15.00;99.90;;;;;;5092167;28;3135;-67
2022/11/01 09:39:16;;;;;;;;;;;15.10;99.90;;;;;;5107502;28;1290;-66
2022/11/01 09:41:46;;;;;;;;;;;15.20;99.90;;;;;;5106018;28;3413;-67
2022/11/01 09:44:14;;;;;;;;;;;15.30;99.90;;;;;;5107355;28;1230;-67
2022/11/01 09:46:44;;;;;;;;;;;15.20;99.90;;;;;;5110188;28;1151;-67
2022/11/01 09:49:13;;;;;;;;;;;15.40;99.90;;;;;;5108647;28;1207;-67
2022/11/01 09:51:39;;;;;;;;;;;15.50;99.90;;;;;;5108833;28;3090;-66
2022/11/01 09:54:07;;;;;;;;;;;15.50;99.90;;;;;;5099358;28;3489;-66
2022/11/01 09:56:39;;;;;;;;;;;15.30;99.90;;;;;;5085272;28;3328;-66
2022/11/01 09:59:11;;;;;;;;;;;15.20;99.90;;;;;;5109866;28;3114;-67
2022/11/01 10:01:41;;;;;;;;;;;15.50;99.90;;;;;;5100733;28;3471;-66
2022/11/01 10:04:13;;;;;;;;;;;15.70;99.90;;;;;;5107496;28;3332;-66
2022/11/01 10:06:40;;;;;;;;;;;15.90;99.90;;;;;;5108948;28;1341;-66
2022/11/01 10:09:10;;;;;;;;;;;16.10;99.90;;;;;;5099488;28;3169;-66
2022/11/01 10:11:42;;;;;;;;;;;16.20;99.90;;;;;;5103902;28;1914;-66
2022/11/01 10:14:23;;;;;;;;;;;16.30;99.90;;;;;;5105769;28;1096;-66
2022/11/01 10:16:58;;;;;;;;;;;16.30;99.90;;;;;;5097833;28;1077;-66
2022/11/01 10:19:25;;;;;;;;;;;16.50;99.90;;;;;;5109554;28;1105;-66
2022/11/01 10:21:53;;;;;;;;;;;16.60;99.90;;;;;;5109885;28;3711;-66
2022/11/01 10:24:19;;;;;;;;;;;16.50;99.90;;;;;;5108473;28;1148;-66
2022/11/01 10:26:45;;;;;;;;;;;15.60;99.90;;;;;;5109901;28;1100;-66
2022/11/01 10:29:11;;;;;;;;;;;16.70;99.90;;;;;;5103420;28;1160;-66
2022/11/01 10:31:42;;;;;;;;;;;16.80;99.90;;;;;;5105625;28;1969;-66
2022/11/01 10:34:15;;;;;;;;;;;16.60;99.90;;;;;;5107910;28;1077;-66
2022/11/01 10:36:43;;;;;;;;;;;16.20;99.90;;;;;;5109961;28;1104;-66
2022/11/01 10:39:15;;;;;;;;;;;15.90;99.90;;;;;;5106735;28;1118;-66
2022/11/01 10:41:48;;;;;;;;;;;15.60;99.90;;;;;;5079114;28;1188;-66
2022/11/01 10:44:16;;;;;;;;;;;16.20;99.90;;;;;;5110140;28;1160;-66
2022/11/01 10:46:45;;;;;;;;;;;15.90;99.90;;;;;;5101900;28;1092;-66
2022/11/01 10:49:16;;;;;;;;;;;15.60;99.90;;;;;;5108910;28;1137;-66
2022/11/01 10:51:43;;;;;;;;;;;15.50;99.90;;;;;;5108215;28;1909;-66
2022/11/01 10:54:15;;;;;;;;;;;15.50;99.90;;;;;;5109390;28;1131;-65
2022/11/01 10:56:43;;;;;;;;;;;15.60;99.90;;;;;;5095152;28;1501;-65
2022/11/01 10:59:09;;;;;;;;;;;15.70;99.90;;;;;;5099086;28;1109;-65
2022/11/01 11:01:36;;;;;;;;;;;15.80;99.90;;;;;;5088522;28;3196;-66
2022/11/01 11:04:03;;;;;;;;;;;15.60;99.90;;;;;;5088772;28;3653;-66
2022/11/01 11:06:30;;;;;;;;;;;15.40;99.90;;;;;;5108703;28;1304;-66
2022/11/01 11:08:56;;;;;;;;;;;15.30;99.90;;;;;;5102028;28;3296;-66
2022/11/01 11:11:29;;;;;;;;;;;15.20;99.90;;;;;;5108884;28;3572;-66
2022/11/01 11:13:56;;;;;;;;;;;15.20;99.90;;;;;;5108394;28;3251;-65
2022/11/01 11:16:29;;;;;;;;;;;15.10;99.90;;;;;;5094365;28;3287;-66
2022/11/01 11:18:59;;;;;;;;;;;15.10;99.90;;;;;;5101298;28;1160;-66
2022/11/01 11:21:24;;;;;;;;;;;15.00;99.90;;;;;;5096871;28;3276;-66
2022/11/01 11:23:50;;;;;;;;;;;15.00;99.90;;;;;;5087626;28;3168;-66
2022/11/01 11:26:17;;;;;;;;;;;15.00;99.90;;;;;;5108685;28;1142;-65
2022/11/01 11:28:46;;;;;;;;;;;14.90;99.90;;;;;;5108120;28;1100;-65
2022/11/01 11:31:13;;;;;;;;;;;14.90;99.90;;;;;;5107406;28;1926;-66
2022/11/01 11:33:46;;;;;;;;;;;14.90;99.90;;;;;;5108805;28;1243;-66
2022/11/01 11:36:12;;;;;;;;;;;14.90;99.90;;;;;;5096463;28;1203;-66
2022/11/01 11:38:38;;;;;;;;;;;15.00;99.90;;;;;;5088686;28;1388;-66
2022/11/01 11:41:04;;;;;;;;;;;15.10;99.90;;;;;;5107090;28;1183;-66
2022/11/01 11:43:32;;;;;;;;;;;15.10;99.90;;;;;;5110096;28;1518;-66
2022/11/01 11:46:03;;;;;;;;;;;15.10;99.90;;;;;;5110971;28;1403;-66
2022/11/01 11:48:29;;;;;;;;;;;15.10;99.90;;;;;;5112378;28;1096;-66
2022/11/01 11:51:02;;;;;;;;;;;15.30;99.90;;;;;;5112914;28;1926;-66
2022/11/01 11:53:28;;;;;;;;;;;15.60;99.90;;;;;;5112822;28;1132;-66
2022/11/01 11:55:55;;;;;;;;;;;16.20;99.90;;;;;;5111608;28;1124;-66
2022/11/01 11:58:26;;;;;;;;;;;16.20;99.90;;;;;;5110964;28;1239;-66
2022/11/01 12:00:59;;;;;;;;;;;16.10;99.90;;;;;;5112755;28;1178;-66
2022/11/01 12:03:24;;;;;;;;;;;16.40;99.90;;;;;;5110634;28;3217;-65
2022/11/01 12:05:52;;;;;;;;;;;16.60;99.90;;;;;;5099899;28;3380;-66
2022/11/01 12:08:24;;;;;;;;;;;17.00;99.90;;;;;;5110652;28;1116;-65
2022/11/01 12:10:55;;;;;;;;;;;17.00;99.90;;;;;;5111584;28;3090;-65
2022/11/01 12:13:27;;;;;;;;;;;17.20;99.90;;;;;;5111962;28;1134;-66
2022/11/01 12:16:23;;;;;;;;;;;17.40;99.90;;;;;;5092056;28;1146;-66
2022/11/01 12:18:51;;;;;;;;;;;17.20;99.90;;;;;;5094204;28;1184;-66
2022/11/01 12:21:25;;;;;;;;;;;17.30;99.90;;;;;;5112151;28;1171;-66
2022/11/01 12:23:53;;;;;;;;;;;17.20;99.90;;;;;;5087604;28;3120;-66
2022/11/01 12:26:21;;;;;;;;;;;17.40;99.90;;;;;;5099773;28;3442;-66
2022/11/01 12:28:53;;;;;;;;;;;17.50;99.90;;;;;;5108028;28;3594;-66
2022/11/01 12:31:20;;;;;;;;;;;17.50;99.90;;;;;;5103485;28;3594;-66
2022/11/01 12:33:49;;;;;;;;;;;17.40;99.90;;;;;;5108204;27;3337;-66
2022/11/01 12:36:17;;;;;;;;;;;17.50;99.90;;;;;;5108875;28;3563;-66
2022/11/01 12:38:46;;;;;;;;;;;17.80;99.90;;;;;;5106327;28;3249;-66
2022/11/01 12:41:15;;;;;;;;;;;17.90;99.90;;;;;;5108924;28;1020;-66
2022/11/01 12:43:48;;;;;;;;;;;17.90;99.90;;;;;;5111666;28;3503;-66
2022/11/01 12:46:20;;;;;;;;;;;18.00;99.90;;;;;;5110712;28;1020;-66
2022/11/01 12:48:50;;;;;;;;;;;18.10;99.90;;;;;;5111460;28;1084;-66
2022/11/01 12:51:19;;;;;;;;;;;17.70;99.90;;;;;;5108179;28;1921;-66
2022/11/01 12:53:50;;;;;;;;;;;17.90;99.90;;;;;;5103792;28;1147;-66
2022/11/01 12:56:16;;;;;;;;;;;17.70;99.90;;;;;;5111314;28;1186;-66
2022/11/01 12:58:42;;;;;;;;;;;17.50;99.90;;;;;;5110718;28;1135;-66
2022/11/01 13:01:19;;;;;;;;;;;17.60;99.90;;;;;;5111798;28;1128;-66
2022/11/01 13:03:50;;;;;;;;;;;17.60;99.90;;;;;;5111682;28;1334;-66
2022/11/01 13:06:29;;;;;;;;;;;17.40;99.90;;;;;;5097214;28;1471;-66
2022/11/01 13:09:08;;;;;;;;;;;17.00;99.90;;;;;;5092943;28;1127;-66
2022/11/01 13:11:40;;;;;;;;;;;17.10;99.90;;;;;;5111536;28;1980;-66
2022/11/01 13:14:07;;;;;;;;;;;17.00;99.90;;;;;;5110500;28;1111;-66
2022/11/01 13:16:35;;;;;;;;;;;17.00;99.90;;;;;;5111218;28;1028;-66
2022/11/01 13:19:09;;;;;;;;;;;17.30;99.90;;;;;;5111553;28;1120;-66
2022/11/01 13:21:36;;;;;;;;;;;17.10;99.90;;;;;;5091915;28;1196;-66
2022/11/01 13:24:03;;;;;;;;;;;17.40;99.90;;;;;;5111553;28;1092;-66
2022/11/01 13:26:31;;;;;;;;;;;17.30;99.90;;;;;;5110176;28;1134;-66
2022/11/01 13:29:01;;;;;;;;;;;17.10;99.90;;;;;;5111182;28;1170;-66
2022/11/01 13:31:33;;;;;;;;;;;17.00;99.90;;;;;;5111150;28;2004;-66
2022/11/01 13:34:12;;;;;;;;;;;17.10;99.90;;;;;;5110191;28;1100;-66
2022/11/01 13:36:45;;;;;;;;;;;17.50;99.90;;;;;;5092318;28;1030;-66
2022/11/01 13:39:20;;;;;;;;;;;17.90;99.90;;;;;;5106999;28;3145;-66
2022/11/01 13:41:59;;;;;;;;;;;17.80;99.90;;;;;;5101640;28;3617;-66
2022/11/01 13:44:28;;;;;;;;;;;17.90;99.90;;;;;;5097148;28;3253;-66
2022/11/01 13:47:06;;;;;;;;;;;17.80;99.90;;;;;;5085811;28;3465;-66
2022/11/01 13:49:38;;;;;;;;;;;18.00;99.90;;;;;;5107398;28;3359;-65
2022/11/01 13:52:07;;;;;;;;;;;18.20;99.90;;;;;;5098545;28;3510;-66
2022/11/01 13:54:33;;;;;;;;;;;18.20;99.90;;;;;;5109772;28;3043;-66
2022/11/01 13:57:08;;;;;;;;;;;18.30;99.90;;;;;;5110642;28;1177;-66
2022/11/01 13:59:54;;;;;;;;;;;18.80;99.90;;;;;;5103214;28;3369;-66
2022/11/01 14:02:24;;;;;;;;;;;19.30;98.60;;;;;;5106030;28;1177;-66
2022/11/01 14:04:58;;;;;;;;;;;19.70;98.20;;;;;;5110456;28;1322;-66
2022/11/01 14:07:29;;;;;;;;;;;19.40;97.90;;;;;;5109917;28;1562;-66
2022/11/01 14:09:55;;;;;;;;;;;19.70;97.20;;;;;;5104617;28;3004;-66
2022/11/01 14:12:29;;;;;;;;;;;20.20;96.80;;;;;;5110266;28;1178;-66
2022/11/01 14:15:07;;;;;;;;;;;20.80;96.50;;;;;;5110250;28;1148;-66
2022/11/01 14:17:32;;;;;;;;;;;21.10;95.10;;;;;;5109829;28;1100;-66
2022/11/01 14:19:58;;;;;;;;;;;21.00;94.60;;;;;;5114291;27;1329;-66
2022/11/01 14:22:26;;;;;;;;;;;21.00;94.50;;;;;;5113821;27;1114;-66
2022/11/01 14:24:53;;;;;;;;;;;21.10;94.30;;;;;;5112471;27;1202;-66
2022/11/01 14:27:21;;;;;;;;;;;21.30;93.50;;;;;;5103573;27;1075;-66
2022/11/01 14:29:48;;;;;;;;;;;21.30;93.50;;;;;;5109166;28;1237;-66
2022/11/01 14:32:14;;;;;;;;;;;21.20;94.10;;;;;;5109802;28;2004;-66
2022/11/01 14:34:41;;;;;;;;;;;21.20;93.90;;;;;;5109877;28;1077;-68
2022/11/01 14:37:12;;;;;;;;;;;21.30;93.10;;;;;;5108947;28;1120;-69
2022/11/01 14:39:43;;;;;;;;;;;21.50;93.10;;;;;;5110621;28;977;-67